Hales Corners, Wisconsin
Current Conditions -  °F | °C
As of 1:52 PM on Tuesday 21 Oct 2014 (Local Time) from KMKE Reporting Station
Overcast Overcast  
Wind Chill: 42°   Ceiling: 2300
Heat Index: 48°   Visibility: 10mi
Dew Point: 38°   Wind: 14mph
Humidity: 68%   Direction: 360°N
Pressure: 30.21"   Gusts: NA
Location:  42.94°N, 88.06°W
Report Text: KMKE 211852Z 36012KT 10SM FEW012 BKN023 OVC028 09/03 A3021 RMK AO2 SLP233 T00890033
Loading
Personal Weather Stations






























Interactive Weather Map
Tropical Storm Tracking
New forecast layout! Learn more

10-Day Weather Forecast

Advertisements
Track Severe Weather on mobile